createdAt,value
2019-05-15T00:02:10.797Z,98995.02
2019-05-15T00:04:40.546Z,98994.53
2019-05-15T00:07:09.908Z,98985.28
2019-05-15T00:09:41.719Z,98986.23
2019-05-15T00:12:10.218Z,98986.21
2019-05-15T00:14:39.517Z,98982.56
2019-05-15T00:17:10.062Z,98982.56
2019-05-15T00:19:40.078Z,98978.73
2019-05-15T00:22:09.334Z,98984.98
2019-05-15T00:24:38.614Z,98977.02
2019-05-15T00:27:08.236Z,98975.41
2019-05-15T00:29:38.358Z,98974.51
2019-05-15T00:32:09.200Z,98965.16
2019-05-15T00:34:38.603Z,98967.34
2019-05-15T00:37:09.051Z,98966.09
2019-05-15T00:39:39.626Z,98966.92
2019-05-15T00:42:08.896Z,98965.23
2019-05-15T00:44:38.709Z,98958.05
2019-05-15T00:47:10.429Z,98954.55
2019-05-15T00:49:39.173Z,98959.09
2019-05-15T00:52:12.133Z,98956.35
2019-05-15T00:54:40.540Z,98956.67
2019-05-15T00:57:09.834Z,98948.35
2019-05-15T00:59:39.143Z,98943.41
2019-05-15T01:02:08.775Z,98945.22
2019-05-15T01:04:38.897Z,98936.84
2019-05-15T01:07:08.497Z,98935.87
2019-05-15T01:09:38.472Z,98931.29
2019-05-15T01:12:09.096Z,98935.34
2019-05-15T01:14:38.696Z,98928.01
2019-05-15T01:17:09.080Z,98924.61
2019-05-15T01:19:38.490Z,98924.16
2019-05-15T01:22:08.754Z,98920.81
2019-05-15T01:24:38.885Z,98921.91
2019-05-15T01:27:09.101Z,98921.39
2019-05-15T01:29:44.727Z,98915.61
2019-05-15T01:32:09.506Z,98916.56
2019-05-15T01:34:38.758Z,98910.77
2019-05-15T01:37:08.537Z,98915.70
2019-05-15T01:39:38.593Z,98912.90
2019-05-15T01:42:18.438Z,98907.55
2019-05-15T01:44:48.443Z,98902.97
2019-05-15T01:47:18.980Z,98897.35
2019-05-15T01:49:49.852Z,98896.92
2019-05-15T01:52:20.085Z,98894.36
2019-05-15T01:54:49.379Z,98893.04
2019-05-15T01:57:19.047Z,98897.30
2019-05-15T01:59:57.198Z,98890.63
2019-05-15T02:02:19.381Z,98896.34
2019-05-15T02:04:48.822Z,98896.66
2019-05-15T02:07:18.737Z,98886.88
2019-05-15T02:09:49.201Z,98891.23
2019-05-15T02:12:19.101Z,98888.72
2019-05-15T02:14:48.732Z,98891.09
2019-05-15T02:17:18.984Z,98893.04
2019-05-15T02:19:48.618Z,98892.08
2019-05-15T02:22:18.955Z,98895.09
2019-05-15T02:24:48.375Z,98888.55
2019-05-15T02:27:19.142Z,98884.02
2019-05-15T02:29:49.353Z,98886.67
2019-05-15T02:32:19.387Z,98885.69
2019-05-15T02:34:50.092Z,98879.80
2019-05-15T02:37:19.623Z,98880.05
2019-05-15T02:39:49.561Z,98881.17
2019-05-15T02:42:19.330Z,98884.12
2019-05-15T02:44:49.979Z,98886.91
2019-05-15T02:47:20.064Z,98881.55
2019-05-15T02:49:49.509Z,98877.16
2019-05-15T02:52:19.966Z,98879.53
2019-05-15T02:54:50.020Z,98867.94
2019-05-15T02:57:19.534Z,98871.47
2019-05-15T02:59:49.810Z,98872.30
2019-05-15T03:02:19.565Z,98868.51
2019-05-15T03:04:49.234Z,98866.20
2019-05-15T03:07:19.398Z,98869.30
2019-05-15T03:09:49.675Z,98872.34
2019-05-15T03:12:19.692Z,98873.02
2019-05-15T03:14:49.363Z,98876.84
2019-05-15T03:17:19.146Z,98871.15
2019-05-15T03:19:49.670Z,98868.16
2019-05-15T03:22:19.748Z,98861.72
2019-05-15T03:24:50.217Z,98861.36
2019-05-15T03:27:20.136Z,98863.05
2019-05-15T03:29:49.600Z,98857.69
2019-05-15T03:32:32.287Z,98862.02
2019-05-15T03:34:56.163Z,98863.28
2019-05-15T03:37:22.845Z,98864.38
2019-05-15T03:39:52.404Z,98855.79
2019-05-15T03:42:21.862Z,98861.58
2019-05-15T03:44:59.604Z,98859.40
2019-05-15T03:47:30.150Z,98861.31
2019-05-15T03:50:00.237Z,98857.52
2019-05-15T03:52:29.609Z,98857.48
2019-05-15T03:54:58.975Z,98852.63
2019-05-15T03:57:30.384Z,98857.78
2019-05-15T03:59:59.747Z,98858.09
2019-05-15T04:02:29.149Z,98861.84
2019-05-15T04:05:01.530Z,98857.48
2019-05-15T04:07:29.513Z,98864.41
2019-05-15T04:09:58.948Z,98861.14
2019-05-15T04:12:29.150Z,98864.06
2019-05-15T04:14:59.636Z,98857.91
2019-05-15T04:17:29.647Z,98859.92
2019-05-15T04:19:59.132Z,98861.14
2019-05-15T04:22:29.263Z,98855.39
2019-05-15T04:24:59.640Z,98854.27
2019-05-15T04:27:30.470Z,98856.73
2019-05-15T04:29:59.721Z,98857.70
2019-05-15T04:32:29.190Z,98858.66
2019-05-15T04:35:00.341Z,98849.77
2019-05-15T04:37:31.128Z,98855.61
2019-05-15T04:40:00.461Z,98860.14
2019-05-15T04:42:30.140Z,98856.70
2019-05-15T04:44:59.771Z,98849.75
2019-05-15T04:47:30.218Z,98850.13
2019-05-15T04:49:59.838Z,98852.73
2019-05-15T04:52:30.509Z,98848.38
2019-05-15T04:55:00.094Z,98853.64
2019-05-15T04:57:34.532Z,98848.30
2019-05-15T05:00:09.195Z,98849.42
2019-05-15T05:02:39.933Z,98845.86
2019-05-15T05:05:10.847Z,98844.97
2019-05-15T05:07:40.864Z,98849.59
2019-05-15T05:10:11.240Z,98852.30
2019-05-15T05:12:42.619Z,98862.61
2019-05-15T05:15:12.639Z,98854.59
2019-05-15T05:17:43.319Z,98862.30
2019-05-15T05:20:14.468Z,98858.14
2019-05-15T05:22:48.341Z,98856.47
2019-05-15T05:25:18.285Z,98861.10
2019-05-15T05:27:48.685Z,98857.90
2019-05-15T05:30:19.077Z,98862.98
2019-05-15T05:32:48.852Z,98863.50
2019-05-15T05:35:19.905Z,98866.02
2019-05-15T05:37:49.425Z,98867.38
2019-05-15T05:40:19.033Z,98870.19
2019-05-15T05:42:48.850Z,98865.36
2019-05-15T05:45:18.708Z,98872.09
2019-05-15T05:48:01.226Z,98863.75
2019-05-15T05:50:38.776Z,98865.63
2019-05-15T05:53:08.842Z,98867.41
2019-05-15T05:55:38.783Z,98867.38
2019-05-15T05:58:09.225Z,98864.26
2019-05-15T06:00:41.354Z,98871.14
2019-05-15T06:03:12.024Z,98859.34
2019-05-15T06:05:42.033Z,98865.16
2019-05-15T06:08:12.110Z,98863.28
2019-05-15T06:10:41.949Z,98867.77
2019-05-15T06:13:11.303Z,98863.14
2019-05-15T06:15:40.619Z,98861.34
2019-05-15T06:18:09.893Z,98860.47
2019-05-15T06:20:39.570Z,98852.05
2019-05-15T06:23:09.006Z,98855.88
2019-05-15T06:25:39.056Z,98857.70
2019-05-15T06:28:09.145Z,98854.27
2019-05-15T06:30:39.942Z,98855.69
2019-05-15T06:33:13.258Z,98850.77
2019-05-15T06:35:40.261Z,98860.31
2019-05-15T06:38:09.669Z,98860.72
2019-05-15T06:40:39.613Z,98858.45
2019-05-15T06:43:09.045Z,98850.77
2019-05-15T06:45:38.343Z,98857.97
2019-05-15T06:48:09.412Z,98853.15
2019-05-15T06:50:40.096Z,98853.47
2019-05-15T06:53:10.832Z,98851.27
2019-05-15T06:55:40.319Z,98855.10
2019-05-15T06:58:10.626Z,98852.80
2019-05-15T07:00:39.883Z,98855.23
2019-05-15T07:03:23.762Z,98850.83
2019-05-15T07:05:41.377Z,98854.73
2019-05-15T07:08:10.636Z,98850.72
2019-05-15T07:10:39.946Z,98851.06
2019-05-15T07:13:09.229Z,98851.36
2019-05-15T07:15:38.646Z,98847.80
2019-05-15T07:18:08.771Z,98852.30
2019-05-15T07:20:39.121Z,98857.03
2019-05-15T07:23:09.010Z,98857.27
2019-05-15T07:25:38.997Z,98854.11
2019-05-15T07:28:08.938Z,98850.20
2019-05-15T07:30:41.134Z,98840.78
2019-05-15T07:33:09.312Z,98849.28
2019-05-15T07:35:38.697Z,98850.17
2019-05-15T07:38:08.147Z,98851.56
2019-05-15T07:40:38.566Z,98847.83
2019-05-15T07:43:09.302Z,98847.55
2019-05-15T07:45:43.769Z,98844.09
2019-05-15T07:48:09.884Z,98841.49
2019-05-15T07:50:43.448Z,98841.42
2019-05-15T07:53:12.757Z,98841.59
2019-05-15T07:55:42.015Z,98837.58
2019-05-15T07:58:12.420Z,98842.83
2019-05-15T08:00:41.750Z,98834.94
2019-05-15T08:03:11.006Z,98824.47
2019-05-15T08:05:55.039Z,98831.38
2019-05-15T08:08:12.455Z,98831.73
2019-05-15T08:10:41.737Z,98825.25
2019-05-15T08:13:11.023Z,98838.77
2019-05-15T08:15:40.334Z,98836.17
2019-05-15T08:18:12.814Z,98821.09
2019-05-15T08:20:42.122Z,98820.99
2019-05-15T08:23:11.410Z,98823.18
2019-05-15T08:25:40.762Z,98827.55
2019-05-15T08:28:10.040Z,98828.22
2019-05-15T08:30:39.371Z,98830.16
2019-05-15T08:33:08.661Z,98824.89
2019-05-15T08:35:38.631Z,98834.90
2019-05-15T08:38:09.242Z,98839.61
2019-05-15T08:40:41.088Z,98827.03
2019-05-15T08:43:11.530Z,98827.13
2019-05-15T08:45:41.000Z,98826.33
2019-05-15T08:48:10.364Z,98831.38
2019-05-15T08:50:39.693Z,98829.89
2019-05-15T08:53:08.999Z,98816.02
2019-05-15T08:55:39.101Z,98820.48
2019-05-15T08:58:13.749Z,98820.39
2019-05-15T09:00:42.033Z,98823.36
2019-05-15T09:03:10.740Z,98815.48
2019-05-15T09:05:40.182Z,98812.89
2019-05-15T09:08:09.486Z,98813.69
2019-05-15T09:10:40.213Z,98812.59
2019-05-15T09:13:11.297Z,98810.38
2019-05-15T09:15:40.619Z,98808.80
2019-05-15T09:18:16.002Z,98814.80
2019-05-15T09:20:40.939Z,98808.56
2019-05-15T09:23:10.268Z,98806.84
2019-05-15T09:25:39.595Z,98802.10
2019-05-15T09:28:08.857Z,98801.13
2019-05-15T09:30:39.145Z,98802.02
2019-05-15T09:33:08.783Z,98797.77
2019-05-15T09:35:39.373Z,98796.59
2019-05-15T09:38:08.826Z,98796.94
2019-05-15T09:40:46.149Z,98798.86
2019-05-15T09:43:11.347Z,98784.63
2019-05-15T09:45:42.351Z,98786.55
2019-05-15T09:48:14.632Z,98785.62
2019-05-15T09:50:42.694Z,98781.00
2019-05-15T09:53:28.410Z,98777.77
2019-05-15T09:55:56.886Z,98792.80
2019-05-15T09:58:26.166Z,98774.53
2019-05-15T10:00:55.464Z,98778.45
2019-05-15T10:03:24.744Z,98769.38
2019-05-15T10:05:54.076Z,98777.97
2019-05-15T10:08:23.367Z,98786.83
2019-05-15T10:10:54.121Z,98784.47
2019-05-15T10:13:23.436Z,98787.78
2019-05-15T10:15:52.737Z,98770.64
2019-05-15T10:18:22.008Z,98770.30
2019-05-15T10:20:51.334Z,98779.88
2019-05-15T10:23:20.640Z,98776.88
2019-05-15T10:25:50.385Z,98768.74
2019-05-15T10:28:19.965Z,98762.00
2019-05-15T10:30:50.105Z,98775.78
2019-05-15T10:33:20.466Z,98764.08
2019-05-15T10:35:49.858Z,98768.00
2019-05-15T10:38:19.542Z,98756.77
2019-05-15T10:41:03.871Z,98747.58
2019-05-15T10:43:20.971Z,98747.03
2019-05-15T10:45:54.716Z,98743.85
2019-05-15T10:48:22.649Z,98745.35
2019-05-15T10:50:51.993Z,98736.74
2019-05-15T10:53:22.381Z,98747.53
2019-05-15T10:55:51.645Z,98738.38
2019-05-15T10:58:22.230Z,98745.81
2019-05-15T11:00:51.895Z,98743.58
2019-05-15T11:03:21.209Z,98728.11
2019-05-15T11:05:50.513Z,98730.56
2019-05-15T11:08:19.821Z,98721.88
2019-05-15T11:10:49.767Z,98725.54
2019-05-15T11:13:20.475Z,98715.01
2019-05-15T11:15:49.975Z,98718.04
2019-05-15T11:18:21.075Z,98707.11
2019-05-15T11:20:50.426Z,98711.45
2019-05-15T11:23:20.413Z,98707.81
2019-05-15T11:25:51.101Z,98704.03
2019-05-15T11:28:20.388Z,98709.33
2019-05-15T11:30:49.678Z,98709.84
2019-05-15T11:33:19.420Z,98699.65
2019-05-15T11:36:00.417Z,98698.48
2019-05-15T11:38:21.437Z,98680.48
2019-05-15T11:40:50.744Z,98684.73
2019-05-15T11:43:20.069Z,98681.86
2019-05-15T11:45:49.337Z,98687.47
2019-05-15T11:48:20.972Z,98681.29
2019-05-15T11:50:50.383Z,98662.95
2019-05-15T11:53:19.686Z,98669.45
2019-05-15T11:56:00.022Z,98673.33
2019-05-15T11:58:29.406Z,98675.37
2019-05-15T12:00:58.808Z,98654.48
2019-05-15T12:03:29.116Z,98665.27
2019-05-15T12:06:14.552Z,98670.37
2019-05-15T12:08:29.839Z,98670.91
2019-05-15T12:10:59.597Z,98665.30
2019-05-15T12:13:28.924Z,98662.31
2019-05-15T12:15:58.920Z,98664.05
2019-05-15T12:18:28.693Z,98656.39
2019-05-15T12:20:59.531Z,98662.20
2019-05-15T12:23:29.458Z,98651.33
2019-05-15T12:26:00.681Z,98664.74
2019-05-15T12:28:30.039Z,98659.94
2019-05-15T12:31:00.911Z,98654.73
2019-05-15T12:33:30.174Z,98656.28
2019-05-15T12:35:59.671Z,98662.84
2019-05-15T12:38:29.251Z,98658.50
2019-05-15T13:01:14.804Z,98672.69
2019-05-15T13:03:38.286Z,98674.78
2019-05-15T13:06:08.203Z,98672.08
2019-05-15T13:08:38.524Z,98667.84
2019-05-15T13:11:10.131Z,98672.06
2019-05-15T13:13:39.120Z,98662.72
2019-05-15T13:16:08.422Z,98662.25
2019-05-15T13:18:38.776Z,98660.37
2019-05-15T13:21:08.493Z,98662.95
2019-05-15T13:23:39.594Z,98659.53
2019-05-15T13:26:23.095Z,98659.08
2019-05-15T13:28:39.906Z,98654.27
2019-05-15T13:31:09.367Z,98651.22
2019-05-15T13:33:39.841Z,98649.38
2019-05-15T13:36:09.188Z,98662.67
2019-05-15T13:38:38.480Z,98660.48
2019-05-15T13:41:09.387Z,98666.08
2019-05-15T13:43:38.834Z,98664.27
2019-05-15T13:46:08.847Z,98661.20
2019-05-15T13:48:38.675Z,98649.88
2019-05-15T13:51:08.115Z,98646.73
2019-05-15T13:53:38.558Z,98644.92
2019-05-15T13:56:08.426Z,98650.41
2019-05-15T13:58:38.862Z,98652.55
2019-05-15T14:01:09.414Z,98659.27
2019-05-15T14:03:39.136Z,98650.14
2019-05-15T14:06:09.425Z,98650.29
2019-05-15T14:08:39.266Z,98643.80
2019-05-15T14:11:08.831Z,98652.87
2019-05-15T14:13:39.245Z,98653.52
2019-05-15T14:16:09.581Z,98640.80
2019-05-15T14:18:39.216Z,98639.44
2019-05-15T14:21:09.040Z,98647.28
2019-05-15T14:23:38.683Z,98647.74
2019-05-15T14:26:18.056Z,98649.69
2019-05-15T14:28:39.078Z,98657.66
2019-05-15T14:31:09.711Z,98645.73
2019-05-15T14:33:39.353Z,98651.61
2019-05-15T14:36:08.658Z,98655.67
2019-05-15T14:38:38.045Z,98648.64
2019-05-15T14:41:08.815Z,98647.34
2019-05-15T14:43:38.459Z,98645.75
2019-05-15T14:46:08.310Z,98642.72
2019-05-15T14:48:40.602Z,98640.62
2019-05-15T14:51:09.879Z,98644.44
2019-05-15T14:53:39.327Z,98643.97
2019-05-15T14:56:11.510Z,98644.55
2019-05-15T14:58:40.863Z,98641.12
2019-05-15T15:01:12.736Z,98649.03
2019-05-15T15:03:42.516Z,98648.21
2019-05-15T15:06:12.050Z,98647.27
2019-05-15T15:08:41.361Z,98649.78
2019-05-15T15:11:10.904Z,98650.55
2019-05-15T15:13:40.225Z,98644.23
2019-05-15T15:16:09.601Z,98647.01
2019-05-15T15:18:38.876Z,98652.16
2019-05-15T15:21:22.137Z,98654.97
2019-05-15T15:23:49.694Z,98650.20
2019-05-15T15:26:19.265Z,98651.92
2019-05-15T15:28:49.044Z,98656.67
2019-05-15T15:31:19.176Z,98648.64
2019-05-15T15:33:48.727Z,98656.90
2019-05-15T15:36:18.035Z,98661.63
2019-05-15T15:38:48.443Z,98660.41
2019-05-15T15:41:17.956Z,98654.94
2019-05-15T15:43:48.465Z,98654.97
2019-05-15T15:46:19.497Z,98657.30
2019-05-15T15:48:49.004Z,98654.98
2019-05-15T15:51:18.417Z,98660.31
2019-05-15T15:53:48.152Z,98657.91
2019-05-15T15:56:18.506Z,98654.73
2019-05-15T15:58:48.811Z,98669.23
2019-05-15T16:01:18.691Z,98659.51
2019-05-15T16:03:48.536Z,98667.45
2019-05-15T16:06:18.751Z,98667.91
2019-05-15T16:08:55.193Z,98662.83
2019-05-15T16:11:19.520Z,98661.68
2019-05-15T16:13:49.759Z,98661.25
2019-05-15T16:16:19.658Z,98663.94
2019-05-15T16:18:49.279Z,98660.20
2019-05-15T16:21:19.335Z,98661.55
2019-05-15T16:23:48.869Z,98655.89
2019-05-15T16:26:19.533Z,98653.25
2019-05-15T16:28:49.136Z,98650.44
2019-05-15T16:31:18.722Z,98655.47
2019-05-15T16:33:48.212Z,98645.94
2019-05-15T16:36:18.412Z,98646.41
2019-05-15T16:38:48.330Z,98653.25
2019-05-15T16:41:18.441Z,98644.98
2019-05-15T16:43:48.511Z,98646.37
2019-05-15T16:46:19.258Z,98652.92
2019-05-15T16:48:49.518Z,98648.25
2019-05-15T16:51:19.077Z,98651.63
2019-05-15T16:53:49.835Z,98647.66
2019-05-15T16:56:19.333Z,98651.34
2019-05-15T16:58:48.989Z,98652.59
2019-05-15T17:01:18.821Z,98648.27
2019-05-15T17:03:48.555Z,98649.81
2019-05-15T17:06:18.743Z,98646.34
2019-05-15T17:08:48.732Z,98647.53
2019-05-15T17:11:19.868Z,98653.47
2019-05-15T17:13:50.909Z,98646.59
2019-05-15T17:16:20.217Z,98641.61
2019-05-15T17:18:49.542Z,98645.72
2019-05-15T17:21:19.301Z,98636.42
2019-05-15T17:23:50.799Z,98639.14
2019-05-15T17:26:20.076Z,98642.99
2019-05-15T17:28:49.461Z,98640.95
2019-05-15T17:31:18.788Z,98638.56
2019-05-15T17:33:48.955Z,98639.14
2019-05-15T17:36:18.683Z,98642.76
2019-05-15T17:38:48.708Z,98644.19
2019-05-15T17:41:18.257Z,98643.95
2019-05-15T17:43:48.583Z,98634.43
2019-05-15T17:46:18.010Z,98637.39
2019-05-15T17:48:54.017Z,98631.47
2019-05-15T17:51:18.428Z,98633.59
2019-05-15T17:53:48.869Z,98633.12
2019-05-15T17:56:18.216Z,98631.43
2019-05-15T17:58:48.691Z,98632.16
2019-05-15T18:01:19.218Z,98630.63
2019-05-15T18:03:48.690Z,98629.61
2019-05-15T18:06:18.364Z,98633.66
2019-05-15T18:08:48.549Z,98629.81
2019-05-15T18:11:18.709Z,98628.27
2019-05-15T18:13:48.714Z,98626.70
2019-05-15T18:16:18.391Z,98628.98
2019-05-15T18:18:47.969Z,98626.95
2019-05-15T18:21:18.918Z,98622.73
2019-05-15T18:23:48.733Z,98618.66
2019-05-15T18:26:18.414Z,98629.79
2019-05-15T18:28:48.905Z,98627.14
2019-05-15T18:31:18.364Z,98613.45
2019-05-15T18:33:54.633Z,98622.17
2019-05-15T18:36:19.804Z,98621.98
2019-05-15T18:38:49.143Z,98625.07
2019-05-15T18:41:18.583Z,98624.58
2019-05-15T18:43:48.469Z,98617.70
2019-05-15T18:46:18.372Z,98627.78
2019-05-15T18:48:48.703Z,98626.50
2019-05-15T18:51:18.024Z,98627.87
2019-05-15T18:53:48.330Z,98630.20
2019-05-15T18:56:18.699Z,98622.66
2019-05-15T18:58:48.592Z,98618.50
2019-05-15T19:01:18.009Z,98624.70
2019-05-15T19:03:48.473Z,98622.77
2019-05-15T19:06:18.623Z,98625.22
2019-05-15T19:08:48.053Z,98625.47
2019-05-15T19:11:18.403Z,98616.66
2019-05-15T19:13:48.218Z,98622.09
2019-05-15T19:16:17.626Z,98633.83
2019-05-15T19:18:48.052Z,98632.11
2019-05-15T19:21:17.351Z,98636.91
2019-05-15T19:23:47.870Z,98633.71
2019-05-15T19:26:18.249Z,98636.44
2019-05-15T19:28:48.797Z,98629.67
2019-05-15T19:31:26.797Z,98632.50
2019-05-15T19:33:51.329Z,98633.06
2019-05-15T19:36:20.631Z,98636.36
2019-05-15T19:38:50.159Z,98617.53
2019-05-15T19:41:19.601Z,98621.54
2019-05-15T19:43:49.134Z,98629.47
2019-05-15T19:46:19.738Z,98629.72
2019-05-15T19:48:50.837Z,98622.81
2019-05-15T19:51:20.176Z,98626.02
2019-05-15T19:53:50.462Z,98623.38
2019-05-15T19:56:19.811Z,98619.02
2019-05-15T19:58:49.072Z,98625.41
2019-05-15T20:01:18.932Z,98618.93
2019-05-15T20:03:52.998Z,98624.05
2019-05-15T20:06:20.657Z,98617.48
2019-05-15T20:08:54.533Z,98621.81
2019-05-15T20:11:23.968Z,98615.88
2019-05-15T20:13:53.452Z,98613.87
2019-05-15T20:16:22.806Z,98610.11
2019-05-15T20:18:52.127Z,98614.52
2019-05-15T20:21:23.287Z,98614.13
2019-05-15T20:23:53.614Z,98604.75
2019-05-15T20:26:22.876Z,98596.91
2019-05-15T20:28:52.220Z,98594.94
2019-05-15T20:31:21.646Z,98586.89
2019-05-15T20:34:02.455Z,98591.27
2019-05-15T20:36:23.440Z,98591.09
2019-05-15T20:38:52.826Z,98587.70
2019-05-15T20:41:22.643Z,98586.14
2019-05-15T20:43:52.082Z,98585.99
2019-05-15T20:46:21.496Z,98585.52
2019-05-15T20:48:50.936Z,98594.41
2019-05-15T20:51:20.427Z,98593.75
2019-05-15T20:53:49.825Z,98590.73
2019-05-15T20:56:19.265Z,98595.18
2019-05-15T20:58:49.689Z,98595.22
2019-05-15T21:01:19.037Z,98585.97
2019-05-15T21:03:50.855Z,98590.16
2019-05-15T21:06:19.417Z,98581.66
2019-05-15T21:08:48.948Z,98583.05
2019-05-15T21:11:18.570Z,98587.70
2019-05-15T21:13:49.178Z,98586.81
2019-05-15T21:16:18.949Z,98585.04
2019-05-15T21:18:48.427Z,98587.58
2019-05-15T21:21:19.154Z,98583.58
2019-05-15T21:23:49.261Z,98587.42
2019-05-15T21:26:18.939Z,98585.34
2019-05-15T21:28:48.455Z,98575.64
2019-05-15T21:31:21.872Z,98581.73
2019-05-15T21:33:50.438Z,98573.81
2019-05-15T21:36:20.220Z,98575.79
2019-05-15T21:38:49.518Z,98572.30
2019-05-15T21:41:19.022Z,98571.06
2019-05-15T21:43:50.381Z,98567.58
2019-05-15T21:46:19.653Z,98570.63
2019-05-15T21:48:48.938Z,98562.14
2019-05-15T21:51:18.838Z,98562.38
2019-05-15T21:53:48.343Z,98565.12
2019-05-15T21:56:18.823Z,98555.05
2019-05-15T21:58:48.417Z,98562.80
2019-05-15T22:01:19.719Z,98559.18
2019-05-15T22:03:49.284Z,98561.36
2019-05-15T22:06:18.779Z,98556.80
2019-05-15T22:08:48.079Z,98562.19
2019-05-15T22:11:18.667Z,98552.18
2019-05-15T22:13:48.643Z,98546.74
2019-05-15T22:16:19.544Z,98542.89
2019-05-15T22:18:48.825Z,98541.45
2019-05-15T22:21:18.762Z,98541.30
2019-05-15T22:23:48.081Z,98535.47
2019-05-15T22:26:18.450Z,98533.78
2019-05-15T22:28:48.999Z,98524.80
2019-05-15T22:31:19.635Z,98531.55
2019-05-15T22:33:49.123Z,98527.38
2019-05-15T22:36:18.947Z,98521.14
2019-05-15T22:38:50.437Z,98522.02
2019-05-15T22:41:19.836Z,98514.13
2019-05-15T22:43:49.101Z,98514.84
2019-05-15T22:46:18.723Z,98516.50
2019-05-15T22:48:48.648Z,98501.63
2019-05-15T22:51:18.583Z,98507.13
2019-05-15T22:53:49.305Z,98505.63
2019-05-15T22:56:19.697Z,98504.99
2019-05-15T22:58:49.034Z,98498.30
2019-05-15T23:01:18.969Z,98503.89
2019-05-15T23:03:48.348Z,98496.86
2019-05-15T23:06:18.055Z,98497.00
2019-05-15T23:08:48.869Z,98489.48
2019-05-15T23:11:18.538Z,98489.02
2019-05-15T23:13:48.414Z,98481.02
2019-05-15T23:16:18.346Z,98483.26
2019-05-15T23:18:48.456Z,98479.32
2019-05-15T23:21:18.643Z,98477.16
2019-05-15T23:23:48.793Z,98473.16
2019-05-15T23:26:18.267Z,98471.13
2019-05-15T23:28:48.126Z,98462.64
2019-05-15T23:31:18.911Z,98457.33
2019-05-15T23:33:48.359Z,98458.00
2019-05-15T23:36:18.045Z,98450.05
2019-05-15T23:38:48.015Z,98451.66
2019-05-15T23:41:18.955Z,98448.56
2019-05-15T23:43:48.959Z,98442.83
2019-05-15T23:46:18.574Z,98439.28
2019-05-15T23:48:48.457Z,98439.44
2019-05-15T23:51:18.932Z,98435.37
2019-05-15T23:53:48.560Z,98436.16
2019-05-15T23:56:18.916Z,98425.78
2019-05-15T23:58:48.783Z,98420.73
